createdAt,value
2018-10-12T00:00:01.198Z,25.23
2018-10-12T00:00:32.329Z,27.07
2018-10-12T00:01:03.451Z,25.68
2018-10-12T00:01:34.618Z,24.60
2018-10-12T00:02:05.812Z,25.62
2018-10-12T00:02:36.914Z,26.25
2018-10-12T00:03:08.038Z,26.10
2018-10-12T00:03:39.141Z,24.98
2018-10-12T00:04:10.297Z,25.02
2018-10-12T00:04:41.446Z,24.52
2018-10-12T00:05:12.555Z,24.65
2018-10-12T00:05:43.726Z,24.27
2018-10-12T00:06:14.834Z,24.50
2018-10-12T00:06:45.939Z,24.95
2018-10-12T00:07:17.112Z,23.87
2018-10-12T00:07:48.220Z,23.85
2018-10-12T00:08:19.318Z,23.62
2018-10-12T00:08:50.473Z,23.07
2018-10-12T00:09:21.591Z,23.05
2018-10-12T00:09:52.701Z,22.52
2018-10-12T00:10:23.805Z,22.93
2018-10-12T00:10:54.911Z,23.65
2018-10-12T00:11:26.012Z,21.77
2018-10-12T00:11:57.137Z,24.35
2018-10-12T00:12:28.321Z,23.90
2018-10-12T00:12:59.469Z,23.85
2018-10-12T00:13:30.589Z,24.25
2018-10-12T00:14:01.722Z,24.87
2018-10-12T00:14:32.863Z,23.12
2018-10-12T00:15:04.005Z,25.50
2018-10-12T00:15:35.178Z,23.98
2018-10-12T00:16:06.282Z,24.05
2018-10-12T00:16:37.413Z,23.42
2018-10-12T00:17:08.531Z,24.55
2018-10-12T00:17:39.652Z,24.60
2018-10-12T00:18:10.769Z,23.95
2018-10-12T00:18:41.879Z,23.70
2018-10-12T00:19:13.030Z,23.73
2018-10-12T00:19:44.130Z,24.60
2018-10-12T00:20:15.238Z,25.02
2018-10-12T00:20:46.379Z,24.37
2018-10-12T00:21:17.523Z,25.62
2018-10-12T00:21:48.652Z,24.43
2018-10-12T00:22:19.759Z,25.20
2018-10-12T00:22:50.857Z,26.60
2018-10-12T00:23:21.965Z,25.45
2018-10-12T00:23:53.124Z,24.47
2018-10-12T00:24:24.274Z,24.87
2018-10-12T00:24:55.449Z,25.30
2018-10-12T00:25:26.564Z,25.85
2018-10-12T00:25:57.694Z,24.87
2018-10-12T00:26:28.812Z,24.92
2018-10-12T00:26:59.961Z,26.45
2018-10-12T00:27:31.062Z,24.67
2018-10-12T00:28:02.169Z,26.97
2018-10-12T00:28:33.287Z,25.97
2018-10-12T00:29:04.422Z,26.77
2018-10-12T00:29:35.561Z,26.42
2018-10-12T00:30:06.669Z,26.37
2018-10-12T00:30:37.836Z,26.48
2018-10-12T00:31:08.999Z,26.33
2018-10-12T00:31:40.104Z,26.97
2018-10-12T00:32:11.229Z,26.25
2018-10-12T00:32:42.339Z,26.05
2018-10-12T00:33:13.466Z,27.05
2018-10-12T00:33:44.587Z,27.05
2018-10-12T00:34:15.691Z,26.73
2018-10-12T00:34:46.850Z,27.35
2018-10-12T00:35:17.983Z,26.68
2018-10-12T00:35:49.106Z,27.27
2018-10-12T00:36:20.277Z,28.35
2018-10-12T00:36:51.458Z,27.80
2018-10-12T00:37:22.567Z,27.20
2018-10-12T00:37:53.702Z,27.37
2018-10-12T00:38:24.820Z,28.87
2018-10-12T00:38:55.945Z,28.67
2018-10-12T00:39:27.045Z,29.75
2018-10-12T00:39:58.227Z,28.70
2018-10-12T00:40:29.343Z,28.50
2018-10-12T00:41:00.481Z,28.38
2018-10-12T00:41:31.605Z,29.05
2018-10-12T00:42:02.721Z,29.60
2018-10-12T00:42:33.858Z,27.75
2018-10-12T00:43:04.957Z,28.87
2018-10-12T00:43:36.073Z,29.95
2018-10-12T00:44:07.207Z,28.50
2018-10-12T00:44:38.369Z,28.90
2018-10-12T00:45:09.580Z,28.27
2018-10-12T00:45:40.687Z,29.07
2018-10-12T00:46:11.795Z,30.50
2018-10-12T00:46:42.951Z,32.30
2018-10-12T00:47:14.211Z,33.23
2018-10-12T00:47:45.328Z,32.45
2018-10-12T00:48:16.431Z,33.00
2018-10-12T00:48:47.574Z,35.10
2018-10-12T00:49:18.735Z,34.75
2018-10-12T00:49:49.960Z,32.67
2018-10-12T00:50:21.012Z,33.28
2018-10-12T00:50:52.120Z,33.53
2018-10-12T00:51:23.276Z,33.50
2018-10-12T00:51:54.392Z,32.53
2018-10-12T00:52:25.519Z,33.38
2018-10-12T00:52:56.645Z,34.43
2018-10-12T00:53:27.752Z,33.35
2018-10-12T00:53:58.863Z,33.10
2018-10-12T00:54:29.982Z,32.65
2018-10-12T00:55:01.130Z,32.75
2018-10-12T00:55:32.242Z,32.85
2018-10-12T00:56:03.358Z,33.13
2018-10-12T00:56:34.471Z,32.13
2018-10-12T00:57:05.608Z,34.92
2018-10-12T00:57:36.728Z,34.98
2018-10-12T00:58:07.838Z,32.93
2018-10-12T00:58:38.936Z,34.35
2018-10-12T00:59:10.108Z,34.23
2018-10-12T00:59:41.240Z,33.18
2018-10-12T01:00:12.374Z,33.88
2018-10-12T01:00:43.489Z,33.83
2018-10-12T01:01:14.590Z,34.30
2018-10-12T01:01:45.698Z,35.23
2018-10-12T01:02:16.833Z,34.00
2018-10-12T01:02:48.009Z,34.53
2018-10-12T01:03:19.151Z,33.80
2018-10-12T01:03:50.254Z,32.98
2018-10-12T01:04:21.386Z,33.85
2018-10-12T01:04:52.505Z,33.70
2018-10-12T01:05:23.636Z,33.38
2018-10-12T01:05:54.747Z,34.85
2018-10-12T01:06:25.930Z,35.15
2018-10-12T01:06:57.053Z,33.80
2018-10-12T01:07:28.158Z,33.23
2018-10-12T01:07:59.308Z,32.75
2018-10-12T01:08:30.405Z,34.92
2018-10-12T01:09:01.526Z,32.00
2018-10-12T01:09:32.699Z,32.38
2018-10-12T01:10:03.812Z,31.75
2018-10-12T01:10:34.938Z,30.72
2018-10-12T01:11:06.047Z,35.00
2018-10-12T01:11:37.174Z,34.92
2018-10-12T01:12:08.331Z,33.88
2018-10-12T01:12:39.482Z,35.17
2018-10-12T01:13:10.591Z,33.38
2018-10-12T01:13:41.711Z,34.38
2018-10-12T01:14:12.850Z,34.43
2018-10-12T01:14:44.007Z,40.03
2018-10-12T01:15:15.113Z,39.35
2018-10-12T01:15:46.217Z,36.68
2018-10-12T01:16:17.319Z,36.55
2018-10-12T01:16:48.427Z,37.93
2018-10-12T01:17:19.631Z,34.05
2018-10-12T01:17:50.771Z,34.83
2018-10-12T01:18:21.883Z,37.67
2018-10-12T01:18:52.990Z,35.52
2018-10-12T01:19:24.099Z,35.35
2018-10-12T01:19:55.243Z,35.05
2018-10-12T01:20:26.351Z,34.70
2018-10-12T01:20:57.463Z,36.80
2018-10-12T01:21:28.615Z,35.83
2018-10-12T01:21:59.749Z,35.10
2018-10-12T01:22:30.853Z,33.63
2018-10-12T01:23:01.971Z,35.73
2018-10-12T01:23:33.083Z,32.88
2018-10-12T01:24:04.182Z,33.55
2018-10-12T01:24:35.286Z,33.05
2018-10-12T01:25:06.463Z,33.00
2018-10-12T01:25:37.596Z,32.08
2018-10-12T01:26:08.741Z,33.00
2018-10-12T01:26:39.862Z,32.65
2018-10-12T01:27:11.005Z,32.10
2018-10-12T01:27:42.138Z,31.37
2018-10-12T01:28:13.280Z,31.85
2018-10-12T01:28:44.414Z,32.48
2018-10-12T01:29:15.526Z,32.58
2018-10-12T01:29:46.636Z,31.95
2018-10-12T01:30:17.793Z,34.13
2018-10-12T01:30:48.915Z,33.15
2018-10-12T01:31:20.194Z,33.65
2018-10-12T01:31:51.321Z,32.78
2018-10-12T01:32:22.442Z,33.18
2018-10-12T01:32:53.574Z,33.73
2018-10-12T01:33:24.685Z,32.48
2018-10-12T01:33:55.862Z,32.30
2018-10-12T01:34:27.015Z,32.80
2018-10-12T01:34:58.152Z,34.78
2018-10-12T01:35:29.305Z,32.63
2018-10-12T01:36:00.405Z,33.85
2018-10-12T01:36:31.518Z,34.18
2018-10-12T01:37:02.657Z,34.23
2018-10-12T01:37:33.756Z,34.18
2018-10-12T01:38:04.861Z,34.25
2018-10-12T01:38:35.962Z,35.17
2018-10-12T01:39:07.143Z,33.88
2018-10-12T01:39:38.246Z,34.45
2018-10-12T01:40:09.370Z,35.05
2018-10-12T01:40:40.517Z,33.92
2018-10-12T01:41:11.650Z,34.27
2018-10-12T01:41:42.767Z,33.88
2018-10-12T01:42:13.917Z,32.98
2018-10-12T01:42:45.027Z,32.93
2018-10-12T01:43:16.161Z,34.38
2018-10-12T01:43:47.271Z,32.45
2018-10-12T01:44:18.413Z,32.13
2018-10-12T01:44:49.545Z,33.42
2018-10-12T01:45:20.658Z,32.83
2018-10-12T01:45:51.777Z,31.50
2018-10-12T01:46:22.906Z,33.15
2018-10-12T01:46:54.013Z,33.45
2018-10-12T01:47:25.182Z,34.15
2018-10-12T01:47:56.285Z,35.30
2018-10-12T01:48:27.390Z,33.67
2018-10-12T01:48:58.491Z,33.83
2018-10-12T01:49:29.586Z,33.75
2018-10-12T01:50:00.714Z,35.03
2018-10-12T01:50:31.867Z,34.13
2018-10-12T01:51:02.996Z,34.78
2018-10-12T01:51:34.159Z,34.78
2018-10-12T01:52:05.269Z,33.88
2018-10-12T01:52:36.398Z,34.20
2018-10-12T01:53:07.635Z,34.67
2018-10-12T01:53:38.743Z,34.13
2018-10-12T01:54:09.880Z,34.92
2018-10-12T01:54:40.990Z,36.33
2018-10-12T01:55:12.127Z,35.00
2018-10-12T01:55:43.234Z,35.58
2018-10-12T01:56:14.408Z,35.92
2018-10-12T01:56:45.568Z,36.10
2018-10-12T01:57:16.673Z,34.98
2018-10-12T01:57:47.865Z,34.50
2018-10-12T01:58:19.030Z,36.68
2018-10-12T01:58:50.135Z,35.90
2018-10-12T01:59:21.247Z,35.85
2018-10-12T01:59:52.351Z,36.05
2018-10-12T02:00:23.466Z,33.90
2018-10-12T02:00:54.579Z,34.45
2018-10-12T02:01:25.709Z,35.17
2018-10-12T02:01:56.889Z,36.00
2018-10-12T02:02:28.055Z,35.40
2018-10-12T02:02:59.157Z,35.43
2018-10-12T02:03:30.254Z,35.55
2018-10-12T02:04:01.375Z,36.48
2018-10-12T02:04:32.483Z,35.50
2018-10-12T02:05:03.589Z,36.75
2018-10-12T02:05:34.697Z,35.92
2018-10-12T02:06:05.825Z,36.93
2018-10-12T02:06:36.929Z,37.03
2018-10-12T02:07:08.097Z,35.23
2018-10-12T02:07:39.189Z,35.00
2018-10-12T02:08:10.329Z,36.13
2018-10-12T02:08:41.453Z,36.93
2018-10-12T02:09:12.577Z,37.70
2018-10-12T02:09:43.676Z,38.00
2018-10-12T02:10:14.851Z,35.35
2018-10-12T02:10:45.959Z,36.38
2018-10-12T02:11:17.094Z,37.03
2018-10-12T02:11:48.211Z,37.63
2018-10-12T02:12:19.344Z,38.00
2018-10-12T02:12:50.489Z,38.75
2018-10-12T02:13:21.636Z,37.90
2018-10-12T02:13:52.794Z,38.80
2018-10-12T02:14:23.954Z,39.33
2018-10-12T02:14:55.075Z,36.15
2018-10-12T02:15:26.176Z,35.88
2018-10-12T02:15:57.284Z,38.65
2018-10-12T02:16:28.387Z,35.68
2018-10-12T02:16:59.498Z,33.00
2018-10-12T02:17:30.604Z,35.20
2018-10-12T02:18:01.702Z,34.05
2018-10-12T02:18:32.856Z,32.38
2018-10-12T02:19:03.997Z,34.58
2018-10-12T02:19:35.138Z,34.30
2018-10-12T02:20:06.239Z,33.95
2018-10-12T02:20:37.373Z,34.33
2018-10-12T02:21:08.482Z,32.67
2018-10-12T02:21:39.611Z,33.08
2018-10-12T02:22:10.709Z,34.23
2018-10-12T02:22:41.826Z,37.30
2018-10-12T02:23:12.932Z,33.88
2018-10-12T02:23:44.082Z,32.98
2018-10-12T02:24:15.225Z,34.20
2018-10-12T02:24:47.032Z,32.75
2018-10-12T02:25:18.190Z,33.18
2018-10-12T02:25:49.298Z,32.20
2018-10-12T02:26:20.406Z,32.42
2018-10-12T02:26:51.577Z,33.15
2018-10-12T02:27:22.739Z,31.42
2018-10-12T02:27:53.889Z,32.78
2018-10-12T02:28:25.000Z,33.30
2018-10-12T02:28:56.156Z,33.42
2018-10-12T02:29:27.274Z,34.00
2018-10-12T02:29:58.402Z,33.60
2018-10-12T02:30:29.540Z,34.53
2018-10-12T02:31:00.694Z,34.67
2018-10-12T02:31:31.789Z,33.55
2018-10-12T02:32:02.906Z,31.35
2018-10-12T02:32:34.035Z,30.48
2018-10-12T02:33:05.134Z,32.85
2018-10-12T02:33:36.243Z,31.90
2018-10-12T02:34:07.369Z,32.48
2018-10-12T02:34:38.466Z,32.40
2018-10-12T02:35:09.662Z,33.38
2018-10-12T02:35:40.793Z,32.73
2018-10-12T02:36:11.897Z,31.37
2018-10-12T02:36:42.998Z,31.15
2018-10-12T02:37:14.103Z,30.48
2018-10-12T02:37:45.219Z,33.20
2018-10-12T02:38:16.328Z,31.42
2018-10-12T02:38:47.445Z,30.45
2018-10-12T02:39:55.935Z,31.00
2018-10-12T02:40:27.079Z,30.82
2018-10-12T02:40:58.206Z,29.92
2018-10-12T02:41:29.311Z,31.57
2018-10-12T02:42:00.459Z,29.67
2018-10-12T02:42:31.578Z,30.20
2018-10-12T02:43:02.683Z,31.10
2018-10-12T02:43:33.810Z,31.27
2018-10-12T02:44:04.950Z,30.60
2018-10-12T02:44:36.093Z,32.33
2018-10-12T02:45:07.217Z,31.30
2018-10-12T02:45:38.327Z,30.50
2018-10-12T02:46:09.444Z,30.23
2018-10-12T02:46:40.568Z,31.50
2018-10-12T02:47:11.681Z,29.63
2018-10-12T02:47:42.797Z,28.60
2018-10-12T02:48:13.951Z,29.90
2018-10-12T02:48:45.109Z,29.35
2018-10-12T02:49:16.214Z,29.85
2018-10-12T02:49:47.335Z,27.98
2018-10-12T02:50:18.448Z,30.40
2018-10-12T02:50:49.564Z,28.35
2018-10-12T02:51:20.671Z,29.92
2018-10-12T02:51:51.796Z,30.32
2018-10-12T02:52:22.925Z,28.75
2018-10-12T02:52:54.028Z,28.77
2018-10-12T02:53:25.172Z,28.73
2018-10-12T02:53:56.344Z,29.57
2018-10-12T02:54:27.471Z,28.85
2018-10-12T02:54:58.606Z,29.23
2018-10-12T02:55:29.738Z,30.32
2018-10-12T02:56:00.845Z,30.52
2018-10-12T02:56:31.942Z,31.05
2018-10-12T02:57:03.051Z,30.35
2018-10-12T02:57:34.192Z,29.63
2018-10-12T02:58:05.338Z,29.80
2018-10-12T02:58:36.471Z,28.80
2018-10-12T02:59:07.603Z,30.08
2018-10-12T02:59:38.741Z,29.55
2018-10-12T03:00:09.863Z,30.65
2018-10-12T03:00:40.969Z,29.85
2018-10-12T03:01:12.074Z,30.25
2018-10-12T03:01:43.184Z,30.77
2018-10-12T03:02:14.285Z,29.37
2018-10-12T03:02:45.405Z,30.40
2018-10-12T03:03:16.539Z,30.15
2018-10-12T03:03:47.690Z,31.60
2018-10-12T03:04:18.809Z,32.25
2018-10-12T03:04:49.950Z,31.40
2018-10-12T03:05:21.108Z,32.33
2018-10-12T03:05:52.254Z,31.33
2018-10-12T03:06:23.354Z,31.50
2018-10-12T03:06:54.453Z,32.25
2018-10-12T03:07:25.549Z,31.62
2018-10-12T03:07:56.648Z,31.80
2018-10-12T03:08:27.746Z,29.72
2018-10-12T03:08:58.905Z,31.07
2018-10-12T03:09:30.041Z,31.35
2018-10-12T03:10:01.200Z,31.17
2018-10-12T03:10:32.328Z,30.88
2018-10-12T03:11:03.468Z,30.82
2018-10-12T03:11:34.569Z,29.30
2018-10-12T03:12:05.709Z,30.57
2018-10-12T03:12:36.808Z,29.50
2018-10-12T03:13:07.929Z,29.67
2018-10-12T03:13:39.035Z,30.17
2018-10-12T03:14:10.158Z,31.07
2018-10-12T03:14:41.278Z,31.65
2018-10-12T03:15:12.475Z,30.43
2018-10-12T03:15:43.585Z,31.52
2018-10-12T03:16:14.701Z,28.42
2018-10-12T03:16:45.835Z,30.27
2018-10-12T03:17:16.939Z,30.32
2018-10-12T03:17:48.042Z,29.42
2018-10-12T03:18:19.222Z,28.85
2018-10-12T03:18:50.404Z,30.52
2018-10-12T03:19:21.538Z,29.57
2018-10-12T03:19:52.639Z,29.80
2018-10-12T03:20:23.771Z,30.00
2018-10-12T03:20:54.879Z,29.52
2018-10-12T03:21:26.035Z,29.63
2018-10-12T03:21:57.150Z,29.42
2018-10-12T03:22:28.290Z,29.85
2018-10-12T03:22:59.441Z,30.45
2018-10-12T03:23:30.582Z,30.50
2018-10-12T03:24:01.788Z,30.50
2018-10-12T03:24:32.913Z,30.35
2018-10-12T03:25:04.075Z,30.20
2018-10-12T03:25:35.204Z,30.30
2018-10-12T03:26:06.318Z,29.87
2018-10-12T03:26:37.480Z,31.55
2018-10-12T03:27:08.614Z,31.68
2018-10-12T03:27:39.745Z,29.45
2018-10-12T03:28:10.901Z,30.02
2018-10-12T03:28:42.039Z,29.50
2018-10-12T03:29:13.215Z,29.02
2018-10-12T03:29:44.362Z,28.60
2018-10-12T03:30:15.517Z,29.05
2018-10-12T03:30:46.627Z,29.32
2018-10-12T03:31:17.757Z,28.38
2018-10-12T03:31:48.963Z,28.83
2018-10-12T03:32:20.097Z,27.95
2018-10-12T03:32:51.198Z,29.50
2018-10-12T03:33:22.303Z,29.72
2018-10-12T03:33:53.458Z,28.45
2018-10-12T03:34:24.671Z,28.62
2018-10-12T03:34:55.819Z,29.98
2018-10-12T03:35:26.933Z,29.25
2018-10-12T03:35:58.079Z,30.45
2018-10-12T03:36:29.209Z,29.50
2018-10-12T03:37:00.413Z,30.15
2018-10-12T03:37:31.575Z,30.00
2018-10-12T03:38:02.709Z,29.95
2018-10-12T03:38:33.887Z,29.35
2018-10-12T03:39:05.635Z,30.02
2018-10-12T03:39:36.860Z,30.70
2018-10-12T03:40:07.985Z,30.62
2018-10-12T03:40:39.089Z,30.20
2018-10-12T03:41:10.271Z,28.75
2018-10-12T03:41:41.493Z,28.57
2018-10-12T03:42:12.641Z,27.67
2018-10-12T03:42:43.811Z,28.90
2018-10-12T03:43:14.931Z,28.12
2018-10-12T03:43:46.105Z,27.82
2018-10-12T03:44:17.231Z,30.15
2018-10-12T03:44:48.329Z,28.90
2018-10-12T03:45:19.463Z,28.87
2018-10-12T03:45:50.587Z,29.27
2018-10-12T03:46:21.727Z,27.90
2018-10-12T03:46:52.834Z,28.95
2018-10-12T03:47:23.974Z,28.30
2018-10-12T03:47:55.110Z,28.83
2018-10-12T03:48:26.250Z,29.42
2018-10-12T03:48:57.367Z,29.32
2018-10-12T03:49:28.474Z,28.92
2018-10-12T03:49:59.595Z,28.47
2018-10-12T03:50:30.880Z,29.02
2018-10-12T03:51:01.985Z,29.42
2018-10-12T03:51:33.108Z,29.00
2018-10-12T03:52:04.272Z,29.52
2018-10-12T03:52:35.421Z,29.65
2018-10-12T03:53:06.528Z,29.40
2018-10-12T03:53:37.641Z,29.77
2018-10-12T03:54:08.746Z,29.75
2018-10-12T03:54:40.071Z,29.12
2018-10-12T03:55:11.791Z,31.00
2018-10-12T03:55:42.946Z,31.95
2018-10-12T03:56:14.105Z,30.97
2018-10-12T03:56:45.218Z,31.02
2018-10-12T03:57:16.334Z,31.15
2018-10-12T03:57:47.488Z,30.92
2018-10-12T03:58:18.589Z,30.55
2018-10-12T03:58:49.733Z,30.95
2018-10-12T03:59:20.830Z,29.12
2018-10-12T03:59:51.955Z,30.12
2018-10-12T04:00:23.167Z,30.80
2018-10-12T04:00:54.291Z,30.70
2018-10-12T04:01:25.426Z,29.23
2018-10-12T04:01:56.535Z,30.20
2018-10-12T04:02:27.665Z,28.40
2018-10-12T04:02:58.827Z,28.75
2018-10-12T04:03:29.943Z,31.85
2018-10-12T04:04:01.038Z,30.48
2018-10-12T04:04:32.137Z,29.42
2018-10-12T04:05:03.244Z,26.48
2018-10-12T04:05:34.439Z,27.95
2018-10-12T04:06:05.609Z,28.02
2018-10-12T04:06:36.775Z,27.50
2018-10-12T04:07:07.881Z,27.45
2018-10-12T04:07:39.042Z,27.80
2018-10-12T04:08:10.202Z,27.73
2018-10-12T04:08:41.300Z,26.02
2018-10-12T04:09:12.446Z,28.45
2018-10-12T04:09:43.546Z,27.42
2018-10-12T04:10:14.675Z,26.90
2018-10-12T04:10:45.917Z,28.38
2018-10-12T04:11:17.035Z,29.87
2018-10-12T04:11:48.147Z,29.35
2018-10-12T04:12:19.296Z,27.17
2018-10-12T04:12:50.374Z,28.85
2018-10-12T04:13:21.491Z,28.30
2018-10-12T04:13:52.596Z,27.67
2018-10-12T04:14:23.758Z,27.42
2018-10-12T04:14:54.872Z,28.20
2018-10-12T04:15:27.617Z,27.93
2018-10-12T04:15:58.757Z,27.62
2018-10-12T04:16:29.872Z,27.85
2018-10-12T04:17:00.996Z,28.98
2018-10-12T04:17:32.165Z,28.70
2018-10-12T04:18:03.261Z,28.38
2018-10-12T04:18:34.399Z,29.57
2018-10-12T04:19:05.519Z,27.52
2018-10-12T04:19:36.640Z,27.90
2018-10-12T04:20:07.781Z,29.12
2018-10-12T04:20:38.906Z,28.98
2018-10-12T04:21:10.246Z,28.65
2018-10-12T04:21:41.361Z,27.98
2018-10-12T04:22:12.471Z,29.40
2018-10-12T04:22:43.582Z,29.15
2018-10-12T04:23:14.712Z,28.90
2018-10-12T04:23:45.867Z,28.77
2018-10-12T04:24:16.983Z,28.38
2018-10-12T04:24:48.118Z,29.02
2018-10-12T04:25:19.279Z,29.05
2018-10-12T04:25:50.375Z,29.40
2018-10-12T04:26:21.521Z,31.02
2018-10-12T04:26:52.684Z,27.75
2018-10-12T04:27:23.799Z,28.23
2018-10-12T04:27:54.923Z,28.83
2018-10-12T04:28:26.058Z,29.00
2018-10-12T04:28:57.154Z,28.40
2018-10-12T04:29:28.269Z,29.15
2018-10-12T04:29:59.373Z,29.52
2018-10-12T04:30:30.503Z,29.67
2018-10-12T04:31:01.606Z,29.63
2018-10-12T04:31:32.773Z,27.50
2018-10-12T04:32:04.151Z,28.35
2018-10-12T04:32:35.257Z,28.32
2018-10-12T04:33:06.366Z,27.05
2018-10-12T04:33:37.490Z,28.10
2018-10-12T04:34:08.619Z,28.87
2018-10-12T04:34:40.477Z,27.65
2018-10-12T04:35:11.604Z,27.62
2018-10-12T04:35:42.754Z,28.00
2018-10-12T04:36:13.919Z,27.67
2018-10-12T04:36:45.089Z,29.25
2018-10-12T04:37:16.225Z,28.38
2018-10-12T04:37:47.376Z,26.70
2018-10-12T04:38:18.522Z,26.42
2018-10-12T04:38:49.643Z,27.02
2018-10-12T04:39:20.768Z,26.40
2018-10-12T04:39:51.918Z,26.17
2018-10-12T04:40:23.043Z,28.25
2018-10-12T04:40:54.144Z,27.22
2018-10-12T04:41:25.266Z,27.27
2018-10-12T04:41:56.399Z,27.85
2018-10-12T04:42:27.521Z,27.65
2018-10-12T04:42:58.762Z,27.32
2018-10-12T04:43:29.863Z,27.07
2018-10-12T04:44:00.961Z,27.82
2018-10-12T04:44:32.124Z,28.17
2018-10-12T04:45:03.250Z,27.52
2018-10-12T04:45:34.370Z,27.73
2018-10-12T04:46:05.552Z,28.27
2018-10-12T04:46:36.653Z,27.90
2018-10-12T04:47:07.847Z,28.27
2018-10-12T04:47:38.968Z,27.40
2018-10-12T04:48:10.179Z,28.02
2018-10-12T04:48:41.299Z,27.80
2018-10-12T04:49:12.409Z,26.55
2018-10-12T04:49:43.563Z,27.42
2018-10-12T04:50:14.724Z,27.62
2018-10-12T04:50:45.829Z,26.60
2018-10-12T04:51:16.970Z,26.68
2018-10-12T04:51:48.079Z,27.22
2018-10-12T04:52:19.196Z,27.75
2018-10-12T04:52:50.343Z,27.50
2018-10-12T04:53:21.542Z,28.32
2018-10-12T04:53:52.733Z,27.17
2018-10-12T04:54:23.914Z,27.80
2018-10-12T04:54:55.099Z,27.73
2018-10-12T04:55:26.223Z,27.52
2018-10-12T04:55:57.339Z,28.17
2018-10-12T04:56:28.461Z,26.60
2018-10-12T04:56:59.590Z,27.40
2018-10-12T04:57:30.709Z,27.55
2018-10-12T04:58:01.820Z,28.25
2018-10-12T04:58:32.935Z,29.15
2018-10-12T04:59:04.085Z,28.05
2018-10-12T04:59:35.215Z,29.35
2018-10-12T05:00:06.345Z,28.70
2018-10-12T05:00:37.460Z,28.25
2018-10-12T05:01:08.643Z,29.25
2018-10-12T05:01:39.785Z,29.07
2018-10-12T05:02:10.923Z,31.40
2018-10-12T05:02:42.085Z,30.82
2018-10-12T05:03:13.216Z,31.40
2018-10-12T05:03:44.354Z,33.18
2018-10-12T05:04:15.457Z,29.85
2018-10-12T05:04:46.606Z,30.72
2018-10-12T05:05:17.737Z,33.40
2018-10-12T05:05:49.084Z,30.40
2018-10-12T05:06:20.211Z,31.30
2018-10-12T05:06:51.957Z,28.52
2018-10-12T05:07:23.196Z,29.90
2018-10-12T05:07:54.320Z,30.62
2018-10-12T05:08:25.500Z,29.92
2018-10-12T05:08:56.630Z,29.27
2018-10-12T05:09:27.788Z,28.90
2018-10-12T05:09:58.898Z,29.72
2018-10-12T05:10:30.845Z,28.60
2018-10-12T05:11:02.030Z,29.48
2018-10-12T05:11:33.177Z,30.37
2018-10-12T05:12:04.306Z,32.17
2018-10-12T05:12:35.439Z,31.45
2018-10-12T05:13:06.591Z,33.10
2018-10-12T05:13:37.706Z,30.77
2018-10-12T05:14:08.836Z,32.30
2018-10-12T05:14:39.946Z,31.33
2018-10-12T05:15:11.086Z,29.42
2018-10-12T05:15:42.238Z,30.23
2018-10-12T05:16:13.399Z,31.27
2018-10-12T05:16:44.512Z,30.32
2018-10-12T05:17:15.677Z,28.62
2018-10-12T05:17:46.822Z,29.00
2018-10-12T05:18:17.963Z,29.23
2018-10-12T05:18:49.125Z,30.15
2018-10-12T05:19:20.279Z,33.15
2018-10-12T05:19:51.384Z,28.92
2018-10-12T05:20:22.513Z,30.57
2018-10-12T05:20:53.722Z,29.12
2018-10-12T05:21:24.855Z,29.92
2018-10-12T05:21:56.115Z,28.55
2018-10-12T05:22:27.159Z,28.80
2018-10-12T05:22:58.279Z,30.43
2018-10-12T05:23:29.520Z,29.82
2018-10-12T05:24:00.657Z,30.65
2018-10-12T05:24:31.841Z,30.65
2018-10-12T05:25:02.958Z,30.48
2018-10-12T05:25:34.092Z,28.90
2018-10-12T05:26:05.294Z,30.62
2018-10-12T05:26:36.402Z,29.05
2018-10-12T05:27:07.508Z,30.25
2018-10-12T05:27:38.615Z,29.20
2018-10-12T05:28:09.720Z,30.50
2018-10-12T05:28:40.849Z,29.18
2018-10-12T05:29:11.972Z,30.77
2018-10-12T05:29:43.094Z,32.25
2018-10-12T05:30:14.329Z,30.30
2018-10-12T05:30:45.397Z,31.23
2018-10-12T05:31:16.544Z,30.02
2018-10-12T05:31:47.657Z,30.48
2018-10-12T05:32:18.782Z,30.92
2018-10-12T05:32:49.891Z,30.00
2018-10-12T05:33:21.019Z,31.07
2018-10-12T05:33:52.135Z,31.20
2018-10-12T05:34:23.272Z,30.85
2018-10-12T05:34:54.435Z,31.93
2018-10-12T05:35:25.641Z,32.65
2018-10-12T05:35:56.819Z,33.73
2018-10-12T05:36:28.003Z,35.85
2018-10-12T05:36:59.186Z,33.35
2018-10-12T05:37:30.313Z,36.35
2018-10-12T05:38:01.438Z,33.28
2018-10-12T05:38:32.576Z,32.50
2018-10-12T05:39:03.763Z,29.25
2018-10-12T05:39:34.865Z,31.17
2018-10-12T05:40:05.991Z,33.15
2018-10-12T05:40:37.093Z,33.83
2018-10-12T05:41:08.227Z,34.95
2018-10-12T05:41:39.403Z,35.10
2018-10-12T05:42:10.554Z,40.85
2018-10-12T05:42:41.728Z,37.80
2018-10-12T05:43:12.955Z,33.83
2018-10-12T05:43:44.046Z,39.25
2018-10-12T05:44:15.263Z,36.00
2018-10-12T05:44:46.420Z,34.58
2018-10-12T05:45:17.669Z,39.13
2018-10-12T05:45:48.784Z,41.28
2018-10-12T05:46:19.935Z,41.95
2018-10-12T05:46:51.123Z,33.38
2018-10-12T05:47:22.240Z,33.02
2018-10-12T05:47:53.356Z,32.55
2018-10-12T05:48:24.549Z,33.63
2018-10-12T05:48:55.932Z,32.38
2018-10-12T05:49:26.966Z,32.45
2018-10-12T05:49:58.137Z,33.53
2018-10-12T05:50:29.238Z,35.83
2018-10-12T05:51:00.355Z,36.58
2018-10-12T05:51:31.503Z,36.73
2018-10-12T05:52:02.699Z,37.88
2018-10-12T05:52:35.003Z,38.20
2018-10-12T05:53:06.156Z,36.98
2018-10-12T05:53:37.279Z,32.80
2018-10-12T05:54:08.427Z,34.90
2018-10-12T05:54:39.779Z,31.95
2018-10-12T05:55:10.885Z,32.58
2018-10-12T05:55:42.049Z,32.13
2018-10-12T05:56:13.226Z,32.83
2018-10-12T05:56:44.367Z,32.80
2018-10-12T05:57:15.467Z,31.95
2018-10-12T05:57:46.677Z,33.08
2018-10-12T05:58:17.801Z,33.58
2018-10-12T05:58:48.948Z,32.83
2018-10-12T05:59:20.115Z,31.62
2018-10-12T05:59:51.241Z,31.82
2018-10-12T06:00:22.352Z,30.08
2018-10-12T06:00:53.466Z,30.45
2018-10-12T06:01:24.661Z,30.68
2018-10-12T06:01:55.762Z,29.35
2018-10-12T06:02:26.915Z,28.83
2018-10-12T06:02:58.179Z,30.32
2018-10-12T06:03:29.459Z,29.37
2018-10-12T06:04:01.490Z,28.35
2018-10-12T06:04:32.609Z,29.37
2018-10-12T06:05:03.809Z,30.52
2018-10-12T06:05:35.403Z,29.85
2018-10-12T06:06:06.565Z,30.30
2018-10-12T06:06:37.735Z,29.15
2018-10-12T06:07:08.900Z,30.12
2018-10-12T06:07:40.010Z,30.45
2018-10-12T06:08:11.139Z,29.92
2018-10-12T06:08:42.267Z,31.45
2018-10-12T06:09:13.443Z,31.00
2018-10-12T06:09:44.647Z,29.00
2018-10-12T06:10:15.720Z,28.83
2018-10-12T06:10:46.834Z,30.02
2018-10-12T06:11:17.965Z,28.87
2018-10-12T06:11:49.113Z,28.45
2018-10-12T06:12:20.229Z,27.82
2018-10-12T06:12:51.455Z,27.13
2018-10-12T06:13:22.595Z,27.00
2018-10-12T06:13:55.416Z,27.37
2018-10-12T06:14:26.626Z,26.73
2018-10-12T06:14:57.851Z,26.50
2018-10-12T06:15:29.031Z,25.30
2018-10-12T06:16:00.176Z,25.40
2018-10-12T06:16:31.396Z,25.97
2018-10-12T06:17:03.107Z,25.90
2018-10-12T06:17:34.222Z,25.85
2018-10-12T06:18:05.342Z,24.47
2018-10-12T06:18:36.455Z,24.47
2018-10-12T06:19:07.606Z,22.10
2018-10-12T06:19:38.734Z,24.00
2018-10-12T06:20:09.833Z,23.25
2018-10-12T06:20:40.979Z,22.22
2018-10-12T06:21:12.105Z,22.45
2018-10-12T06:21:43.341Z,24.95
2018-10-12T06:22:14.412Z,21.55
2018-10-12T06:22:47.924Z,24.18
2018-10-12T06:23:20.017Z,24.10
2018-10-12T06:23:51.176Z,22.70
2018-10-12T06:24:22.364Z,23.07
2018-10-12T06:24:53.527Z,21.70
2018-10-12T06:25:29.168Z,25.32
2018-10-12T06:26:00.366Z,23.83
2018-10-12T06:26:31.494Z,23.22
2018-10-12T06:27:02.614Z,22.55
2018-10-12T06:27:33.967Z,23.52
2018-10-12T06:28:05.199Z,23.95
2018-10-12T06:28:36.352Z,23.25
2018-10-12T06:29:07.461Z,23.15
2018-10-12T06:29:38.570Z,23.95
2018-10-12T06:30:10.719Z,24.00
2018-10-12T06:30:41.840Z,24.47
2018-10-12T06:31:13.015Z,25.17
2018-10-12T06:31:44.163Z,23.22
2018-10-12T06:32:15.343Z,24.90
2018-10-12T06:32:46.506Z,24.05
2018-10-12T06:33:17.644Z,23.98
2018-10-12T06:33:48.902Z,24.67
2018-10-12T06:34:20.039Z,24.70
2018-10-12T06:34:51.382Z,23.80
2018-10-12T06:35:22.535Z,25.05
2018-10-12T06:35:53.718Z,24.63
2018-10-12T06:36:24.947Z,26.20
2018-10-12T06:36:56.077Z,25.55
2018-10-12T06:37:27.263Z,26.10
2018-10-12T06:37:58.416Z,24.70
2018-10-12T06:38:29.510Z,24.30
2018-10-12T06:39:00.666Z,24.85
2018-10-12T06:39:31.794Z,24.82
2018-10-12T06:40:02.994Z,25.27
2018-10-12T06:40:34.141Z,25.43
2018-10-12T06:41:43.001Z,24.82
2018-10-12T06:42:13.973Z,24.57